Providence, Rhode Island
Traffic Map
Current Weather Conditions
Providence, Rhode Island
Clear
Clear
55°
Feels Like: 55°
Wind Chill: 55° Ceiling: Unl
Heat Index: 55° Visibility: 10mi
Dew Point: 42° Wind: 13mph
Humidity: 62% Direction: 10° (N)
Pressure: 30.18in Gusts: 0mph
Raw Report DataKPVD 190551Z AUTO 01011KT 10SM CLR 13/06 A3018 RMK AO2 SLP218 T01280056 10194 20128 53027
Traffic Incident Summary
Active as of:
Severity:
Category:
InformationThere was an issue retrieving the traffic information for this location. Please try a different location or try again shortly.
Advertisements
Track Severe Weather on mobile